createdAt,value
2018-05-07T00:03:29.811Z,11.60
2018-05-07T00:09:35.007Z,11.60
2018-05-07T00:15:39.440Z,11.60
2018-05-07T00:21:43.833Z,11.60
2018-05-07T00:27:48.224Z,11.50
2018-05-07T00:33:52.815Z,11.50
2018-05-07T00:39:57.358Z,11.60
2018-05-07T00:46:01.739Z,11.50
2018-05-07T00:52:06.150Z,11.40
2018-05-07T00:58:10.539Z,11.30
2018-05-07T01:04:15.071Z,11.30
2018-05-07T01:10:20.781Z,11.40
2018-05-07T01:16:25.204Z,11.40
2018-05-07T01:22:29.572Z,11.30
2018-05-07T01:28:33.939Z,11.20
2018-05-07T01:34:38.489Z,11.20
2018-05-07T01:40:42.860Z,11.20
2018-05-07T01:46:47.213Z,11.00
2018-05-07T01:52:52.523Z,10.70
2018-05-07T01:58:56.986Z,10.70
2018-05-07T02:05:01.439Z,10.50
2018-05-07T02:11:05.804Z,10.50
2018-05-07T02:17:10.176Z,10.40
2018-05-07T02:23:14.551Z,10.20
2018-05-07T02:29:18.923Z,9.90
2018-05-07T02:35:23.392Z,10.00
2018-05-07T02:41:27.755Z,9.80
2018-05-07T02:47:32.161Z,9.80
2018-05-07T02:53:36.534Z,9.70
2018-05-07T02:59:40.900Z,9.60
2018-05-07T03:05:45.270Z,9.60
2018-05-07T03:11:49.877Z,9.60
2018-05-07T03:17:54.289Z,9.60
2018-05-07T03:23:58.751Z,9.50
2018-05-07T03:30:03.115Z,9.30
2018-05-07T03:36:07.467Z,9.20
2018-05-07T03:42:11.866Z,9.20
2018-05-07T03:48:16.376Z,9.00
2018-05-07T03:54:21.070Z,8.90
2018-05-07T04:00:25.508Z,9.00
2018-05-07T04:06:29.950Z,9.10
2018-05-07T04:12:35.231Z,8.90
2018-05-07T04:25:28.895Z,9.10
2018-05-07T04:31:33.314Z,9.20
2018-05-07T04:37:37.715Z,9.40
2018-05-07T04:43:42.106Z,9.50
2018-05-07T04:49:47.269Z,9.70
2018-05-07T04:55:51.794Z,9.70
2018-05-07T05:01:56.955Z,10.20
2018-05-07T05:08:01.343Z,10.10
2018-05-07T05:14:05.803Z,10.40
2018-05-07T05:20:10.189Z,10.70
2018-05-07T05:26:14.667Z,10.80
2018-05-07T05:32:19.230Z,11.00
2018-05-07T05:38:24.629Z,11.40
2018-05-07T05:44:29.043Z,11.30
2018-05-07T05:50:34.206Z,11.80
2018-05-07T05:56:38.616Z,11.80
2018-05-07T06:02:43.866Z,12.50
2018-05-07T06:08:48.269Z,12.50
2018-05-07T06:14:53.585Z,13.00
2018-05-07T06:20:57.951Z,13.30
2018-05-07T06:27:03.135Z,14.00
2018-05-07T06:33:07.528Z,13.90
2018-05-07T06:39:12.467Z,14.30
2018-05-07T06:45:17.045Z,14.60
2018-05-07T06:51:21.710Z,15.00
2018-05-07T06:57:26.118Z,15.40
2018-05-07T07:03:30.528Z,15.80
2018-05-07T07:09:34.873Z,16.20
2018-05-07T07:15:39.251Z,16.50
2018-05-07T07:21:43.647Z,17.00
2018-05-07T07:27:48.015Z,17.40
2018-05-07T07:33:52.721Z,17.80
2018-05-07T07:39:57.058Z,18.20
2018-05-07T07:46:01.504Z,18.60
2018-05-07T07:52:05.914Z,18.90
2018-05-07T07:58:10.359Z,19.00
2018-05-07T08:04:14.818Z,19.30
2018-05-07T08:10:19.222Z,19.70
2018-05-07T08:16:23.707Z,20.20
2018-05-07T08:22:28.089Z,20.70
2018-05-07T08:28:32.490Z,21.00
2018-05-07T08:34:36.853Z,21.40
2018-05-07T08:40:41.219Z,22.00
2018-05-07T08:46:45.650Z,22.40
2018-05-07T08:52:50.918Z,22.30
2018-05-07T08:58:55.345Z,22.30
2018-05-07T09:04:59.810Z,22.70
2018-05-07T09:11:04.176Z,23.00
2018-05-07T09:17:08.591Z,23.40
2018-05-07T09:23:12.974Z,23.40
2018-05-07T09:29:17.344Z,23.50
2018-05-07T09:35:22.113Z,23.50
2018-05-07T09:41:26.629Z,23.50
2018-05-07T09:47:31.060Z,23.70
2018-05-07T09:53:35.418Z,24.10
2018-05-07T09:59:39.779Z,24.80
2018-05-07T10:05:45.028Z,25.10
2018-05-07T10:11:49.482Z,25.00
2018-05-07T10:17:53.961Z,25.10
2018-05-07T10:23:58.313Z,25.60
2018-05-07T10:30:02.663Z,26.00
2018-05-07T10:36:07.026Z,26.50
2018-05-07T10:42:11.382Z,26.70
2018-05-07T10:48:15.736Z,27.10
2018-05-07T10:54:20.308Z,28.00
2018-05-07T11:00:24.910Z,27.10
2018-05-07T11:06:29.334Z,27.50
2018-05-07T11:12:34.541Z,28.30
2018-05-07T11:18:38.893Z,28.20
2018-05-07T11:24:44.021Z,29.30
2018-05-07T11:30:48.490Z,29.30
2018-05-07T11:36:52.865Z,29.90
2018-05-07T11:42:57.238Z,30.70
2018-05-07T11:49:01.637Z,30.30
2018-05-07T11:55:05.983Z,29.30
2018-05-07T12:01:10.352Z,30.20
2018-05-07T12:07:15.540Z,31.10
2018-05-07T12:13:20.194Z,31.10
2018-05-07T12:19:24.678Z,32.70
2018-05-07T12:25:29.036Z,33.60
2018-05-07T12:31:33.496Z,34.10
2018-05-07T12:37:37.766Z,33.40
2018-05-07T12:43:42.229Z,34.00
2018-05-07T12:49:46.539Z,34.30
2018-05-07T12:55:51.320Z,33.90
2018-05-07T13:01:55.743Z,33.30
2018-05-07T13:08:00.092Z,32.40
2018-05-07T13:14:04.450Z,32.90
2018-05-07T13:20:08.803Z,34.70
2018-05-07T13:26:13.155Z,35.40
2018-05-07T13:32:17.503Z,35.60
2018-05-07T13:38:22.739Z,36.20
2018-05-07T13:44:27.145Z,36.20
2018-05-07T13:50:31.504Z,37.50
2018-05-07T13:56:35.854Z,35.50
2018-05-07T14:02:40.237Z,35.80
2018-05-07T14:08:44.595Z,35.30
2018-05-07T14:14:49.734Z,35.60
2018-05-07T14:20:54.310Z,37.00
2018-05-07T14:26:59.525Z,37.40
2018-05-07T14:33:03.883Z,37.40
2018-05-07T14:39:08.233Z,37.40
2018-05-07T14:45:12.634Z,37.00
2018-05-07T14:51:16.991Z,37.60
2018-05-07T14:57:21.804Z,37.90
2018-05-07T15:03:26.166Z,38.60
2018-05-07T15:09:30.530Z,38.60
2018-05-07T15:15:34.991Z,38.60
2018-05-07T15:21:39.362Z,38.70
2018-05-07T15:27:43.708Z,39.50
2018-05-07T15:33:48.052Z,39.90
2018-05-07T15:39:52.571Z,39.00
2018-05-07T15:45:56.961Z,39.80
2018-05-07T15:52:01.316Z,39.70
2018-05-07T15:58:05.681Z,39.00
2018-05-07T16:04:10.068Z,39.00
2018-05-07T16:10:14.425Z,38.70
2018-05-07T16:16:19.584Z,39.70
2018-05-07T16:22:24.021Z,39.60
2018-05-07T16:28:28.381Z,39.90
2018-05-07T16:34:32.756Z,40.00
2018-05-07T16:40:37.108Z,39.20
2018-05-07T16:46:41.506Z,38.90
2018-05-07T16:52:45.866Z,37.20
2018-05-07T16:58:50.382Z,36.10
2018-05-07T17:04:54.777Z,35.70
2018-05-07T17:10:59.144Z,35.40
2018-05-07T17:17:03.501Z,35.00
2018-05-07T17:23:07.886Z,35.20
2018-05-07T17:29:12.257Z,34.20
2018-05-07T17:35:16.698Z,34.20
2018-05-07T17:41:21.929Z,34.20
2018-05-07T17:47:43.999Z,34.20
2018-05-07T17:53:48.366Z,33.70
2018-05-07T17:59:53.068Z,33.30
2018-05-07T18:05:57.475Z,33.10
2018-05-07T18:12:01.910Z,32.80
2018-05-07T18:18:06.261Z,32.30
2018-05-07T18:24:11.382Z,29.80
2018-05-07T18:30:15.768Z,29.80
2018-05-07T18:36:20.545Z,28.70
2018-05-07T18:42:25.010Z,26.50
2018-05-07T18:48:29.369Z,24.20
2018-05-07T18:54:34.491Z,21.40
2018-05-07T19:00:38.879Z,21.30
2018-05-07T19:06:43.237Z,20.50
2018-05-07T19:12:47.689Z,19.80
2018-05-07T19:18:52.163Z,19.20
2018-05-07T19:24:57.362Z,18.30
2018-05-07T19:31:01.816Z,18.20
2018-05-07T19:37:06.173Z,17.80
2018-05-07T19:43:10.522Z,17.50
2018-05-07T19:49:14.968Z,17.10
2018-05-07T19:55:21.175Z,16.80
2018-05-07T20:01:25.623Z,16.50
2018-05-07T20:07:30.016Z,16.40
2018-05-07T20:13:34.383Z,16.30
2018-05-07T20:19:38.842Z,16.30
2018-05-07T20:25:43.216Z,16.30
2018-05-07T20:31:47.637Z,16.30
2018-05-07T20:37:52.092Z,16.10
2018-05-07T20:43:56.509Z,16.00
2018-05-07T20:50:00.910Z,15.80
2018-05-07T20:56:06.103Z,15.50
2018-05-07T21:02:10.466Z,15.50
2018-05-07T21:08:14.864Z,15.30
2018-05-07T21:14:19.288Z,15.10
2018-05-07T21:20:23.861Z,14.90
2018-05-07T21:26:29.025Z,14.90
2018-05-07T21:32:33.403Z,14.80
2018-05-07T21:38:37.776Z,14.90
2018-05-07T21:44:42.134Z,14.70
2018-05-07T21:50:46.536Z,14.40
2018-05-07T21:56:51.855Z,14.20
2018-05-07T22:02:56.297Z,14.10
2018-05-07T22:09:00.796Z,14.20
2018-05-07T22:15:05.190Z,14.10
2018-05-07T22:21:09.555Z,13.90
2018-05-07T22:27:14.692Z,13.80
2018-05-07T22:33:20.006Z,13.70
2018-05-07T22:39:25.321Z,13.60
2018-05-07T22:45:30.471Z,13.50
2018-05-07T22:51:34.861Z,13.50
2018-05-07T22:57:39.232Z,13.30
2018-05-07T23:03:44.425Z,13.30
2018-05-07T23:09:48.784Z,13.20
2018-05-07T23:15:53.319Z,13.30
2018-05-07T23:21:58.480Z,13.20
2018-05-07T23:28:02.867Z,13.20
2018-05-07T23:34:07.255Z,13.10
2018-05-07T23:40:11.616Z,13.20
2018-05-07T23:46:15.992Z,13.30
2018-05-07T23:52:20.681Z,13.30
2018-05-07T23:58:25.147Z,13.10
